地図

経路データ

SID SEASON NUMBER BASIN SUBBASIN NAME ISO_TIME NATURE LAT LON WMO_WIND WMO_PRES WMO_AGENCY TRACK_TYPE DIST2LAND LANDFALL IFLAG USA_AGENCY USA_ATCF_ID USA_LAT USA_LON USA_RECORD USA_STATUS USA_WIND USA_PRES USA_SSHS USA_R34_NE USA_R34_SE USA_R34_SW USA_R34_NW USA_R50_NE USA_R50_SE USA_R50_SW USA_R50_NW USA_R64_NE USA_R64_SE USA_R64_SW USA_R64_NW USA_POCI USA_ROCI USA_RMW USA_EYE TOKYO_LAT TOKYO_LON TOKYO_GRADE TOKYO_WIND TOKYO_PRES TOKYO_R50_DIR TOKYO_R50_LONG TOKYO_R50_SHORT TOKYO_R30_DIR TOKYO_R30_LONG TOKYO_R30_SHORT TOKYO_LAND CMA_LAT CMA_LON CMA_CAT CMA_WIND CMA_PRES HKO_LAT HKO_LON HKO_CAT HKO_WIND HKO_PRES NEWDELHI_LAT NEWDELHI_LON NEWDELHI_GRADE NEWDELHI_WIND NEWDELHI_PRES NEWDELHI_CI NEWDELHI_DP NEWDELHI_POCI REUNION_LAT REUNION_LON REUNION_TYPE REUNION_WIND REUNION_PRES REUNION_TNUM REUNION_CI REUNION_RMW REUNION_R34_NE REUNION_R34_SE REUNION_R34_SW REUNION_R34_NW REUNION_R50_NE REUNION_R50_SE REUNION_R50_SW REUNION_R50_NW REUNION_R64_NE REUNION_R64_SE REUNION_R64_SW REUNION_R64_NW BOM_LAT BOM_LON BOM_TYPE BOM_WIND BOM_PRES BOM_TNUM BOM_CI BOM_RMW BOM_R34_NE BOM_R34_SE BOM_R34_SW BOM_R34_NW BOM_R50_NE BOM_R50_SE BOM_R50_SW BOM_R50_NW BOM_R64_NE BOM_R64_SE BOM_R64_SW BOM_R64_NW BOM_ROCI BOM_POCI BOM_EYE BOM_POS_METHOD BOM_PRES_METHOD NADI_LAT NADI_LON NADI_CAT NADI_WIND NADI_PRES WELLINGTON_LAT WELLINGTON_LON WELLINGTON_WIND WELLINGTON_PRES DS824_LAT DS824_LON DS824_STAGE DS824_WIND DS824_PRES TD9636_LAT TD9636_LON TD9636_STAGE TD9636_WIND TD9636_PRES TD9635_LAT TD9635_LON TD9635_WIND TD9635_PRES TD9635_ROCI NEUMANN_LAT NEUMANN_LON NEUMANN_CLASS NEUMANN_WIND NEUMANN_PRES MLC_LAT MLC_LON MLC_CLASS MLC_WIND MLC_PRES USA_GUST BOM_GUST BOM_GUST_PER REUNION_GUST REUNION_GUST_PER USA_SEAHGT USA_SEARAD_NE USA_SEARAD_SE USA_SEARAD_SW USA_SEARAD_NW STORM_SPEED STORM_DIR
1978247N12321 1978 82 NA NA FLOSSIE 1978-09-04 00:00:00 TS 12.0000 -39.0000 25 1006 hurdat_atl main 1605 1586 O_____________ hurdat_atl AL131978 12.0000 -39.0000 TD 25 1006 -1 14 315
1978247N12321 1978 82 NA NA FLOSSIE 1978-09-04 03:00:00 TS 12.4828 -39.4921 main 1590 1578 P_____________ AL131978 12.4828 -39.4921 TD 27 -1 14 316
1978247N12321 1978 82 NA NA FLOSSIE 1978-09-04 06:00:00 TS 13.0000 -40.0000 30 hurdat_atl main 1578 1571 O_____________ hurdat_atl AL131978 13.0000 -40.0000 TD 30 -1 15 317
1978247N12321 1978 82 NA NA FLOSSIE 1978-09-04 09:00:00 TS 13.5772 -40.5480 main 1578 1567 P_____________ AL131978 13.5772 -40.5480 TD 32 -1 17 316
1978247N12321 1978 82 NA NA FLOSSIE 1978-09-04 12:00:00 TS 14.2000 -41.2000 35 hurdat_atl main 1567 1555 O_____________ hurdat_atl AL131978 14.2000 -41.2000 TS 35 0 19 312
1978247N12321 1978 82 NA NA FLOSSIE 1978-09-04 15:00:00 TS 14.8499 -41.9977 main 1556 1552 P_____________ AL131978 14.8499 -41.9977 TS 35 0 21 308
1978247N12321 1978 82 NA NA FLOSSIE 1978-09-04 18:00:00 TS 15.5000 -42.9000 35 hurdat_atl main 1555 1544 O_____________ hurdat_atl AL131978 15.5000 -42.9000 TS 35 0 22 305
1978247N12321 1978 82 NA NA FLOSSIE 1978-09-04 21:00:00 TS 16.1150 -43.8577 main 1546 1540 P_____________ AL131978 16.1150 -43.8577 TS 35 0 22 303
1978247N12321 1978 82 NA NA FLOSSIE 1978-09-05 00:00:00 TS 16.7000 -44.8000 35 hurdat_atl main 1543 1540 O_____________ hurdat_atl AL131978 16.7000 -44.8000 TS 35 0 21 304
1978247N12321 1978 82 NA NA FLOSSIE 1978-09-05 03:00:00 TS 17.2570 -45.6307 main 1554 1544 P_____________ AL131978 17.2570 -45.6307 TS 35 0 19 306
1978247N12321 1978 82 NA NA FLOSSIE 1978-09-05 06:00:00 TS 17.8000 -46.4000 35 hurdat_atl main 1563 1563 O_____________ hurdat_atl AL131978 17.8000 -46.4000 TS 35 0 18 306
1978247N12321 1978 82 NA NA FLOSSIE 1978-09-05 09:00:00 TS 18.3270 -47.1510 main 1577 1577 P_____________ AL131978 18.3270 -47.1510 TS 35 0 18 308
1978247N12321 1978 82 NA NA FLOSSIE 1978-09-05 12:00:00 TS 18.9000 -47.9000 35 hurdat_atl main 1607 1607 O_____________ hurdat_atl AL131978 18.9000 -47.9000 TS 35 0 19 312
1978247N12321 1978 82 NA NA FLOSSIE 1978-09-05 15:00:00 TS 19.6146 -48.6848 main 1645 1633 P_____________ AL131978 19.6146 -48.6848 TS 35 0 21 313
1978247N12321 1978 82 NA NA FLOSSIE 1978-09-05 18:00:00 TS 20.3000 -49.5000 35 hurdat_atl main 1633 1607 O_____________ hurdat_atl AL131978 20.3000 -49.5000 TS 35 0 19 308
1978247N12321 1978 82 NA NA FLOSSIE 1978-09-05 21:00:00 TS 20.7943 -50.3211 main 1607 1548 P_____________ AL131978 20.7943 -50.3211 TS 35 0 18 300
1978247N12321 1978 82 NA NA FLOSSIE 1978-09-06 00:00:00 TS 21.2000 -51.2000 35 hurdat_atl main 1538 1454 O_____________ hurdat_atl AL131978 21.2000 -51.2000 TS 35 0 19 296
1978247N12321 1978 82 NA NA FLOSSIE 1978-09-06 03:00:00 TS 21.6599 -52.1844 main 1446 1364 P_____________ AL131978 21.6599 -52.1844 TS 35 0 20 293
1978247N12321 1978 82 NA NA FLOSSIE 1978-09-06 06:00:00 TS 22.0000 -53.2000 35 hurdat_atl main 1354 1268 O_____________ hurdat_atl AL131978 22.0000 -53.2000 TS 35 0 19 284
1978247N12321 1978 82 NA NA FLOSSIE 1978-09-06 09:00:00 TS 22.1320 -54.1731 main 1258 1180 P_____________ AL131978 22.1320 -54.1731 TS 35 0 18 273
1978247N12321 1978 82 NA NA FLOSSIE 1978-09-06 12:00:00 TS 22.1000 -55.1000 35 hurdat_atl main 1170 1079 O_____________ hurdat_atl AL131978 22.1000 -55.1000 TS 35 0 17 264
1978247N12321 1978 82 NA NA FLOSSIE 1978-09-06 15:00:00 TS 21.9648 -56.0031 main 1079 994 P_____________ AL131978 21.9648 -56.0031 TS 37 0 16 259
1978247N12321 1978 82 NA NA FLOSSIE 1978-09-06 18:00:00 TS 21.8000 -56.8000 40 1003 hurdat_atl main 994 932 O_____________ hurdat_atl AL131978 21.8000 -56.8000 TS 40 1003 0 14 260
1978247N12321 1978 82 NA NA FLOSSIE 1978-09-06 21:00:00 TS 21.7195 -57.4523 main 922 875 P_____________ AL131978 21.7195 -57.4523 TS 40 0 11 265
1978247N12321 1978 82 NA NA FLOSSIE 1978-09-07 00:00:00 TS 21.7000 -58.0000 40 hurdat_atl main 875 828 O_____________ hurdat_atl AL131978 21.7000 -58.0000 TS 40 0 10 270
1978247N12321 1978 82 NA NA FLOSSIE 1978-09-07 03:00:00 TS 21.7122 -58.5151 main 828 786 P_____________ AL131978 21.7122 -58.5151 TS 40 0 9 276
1978247N12321 1978 82 NA NA FLOSSIE 1978-09-07 06:00:00 TS 21.8000 -59.0000 40 hurdat_atl main 786 753 O_____________ hurdat_atl AL131978 21.8000 -59.0000 TS 40 0 9 288
1978247N12321 1978 82 NA NA FLOSSIE 1978-09-07 09:00:00 TS 21.9997 -59.4847 main 753 722 P_____________ AL131978 21.9997 -59.4847 TS 40 0 10 293
1978247N12321 1978 82 NA NA FLOSSIE 1978-09-07 12:00:00 TS 22.2000 -60.0000 40 1001 hurdat_atl main 722 679 O_____________ hurdat_atl AL131978 22.2000 -60.0000 TS 40 1001 0 11 284
1978247N12321 1978 82 NA NA FLOSSIE 1978-09-07 15:00:00 TS 22.2577 -60.6154 main 679 632 P_____________ AL131978 22.2577 -60.6154 TS 40 0 11 275
1978247N12321 1978 82 NA NA FLOSSIE 1978-09-07 18:00:00 TS 22.3000 -61.2000 40 hurdat_atl main 632 604 O_____________ hurdat_atl AL131978 22.3000 -61.2000 TS 40 0 10 278
1978247N12321 1978 82 NA NA FLOSSIE 1978-09-07 21:00:00 TS 22.3899 -61.6899 main 604 597 P_____________ AL131978 22.3899 -61.6899 TS 40 0 8 292
1978247N12321 1978 82 NA NA FLOSSIE 1978-09-08 00:00:00 TS 22.6000 -62.0000 40 hurdat_atl main 600 600 O_____________ hurdat_atl AL131978 22.6000 -62.0000 TS 40 0 7 327
1978247N12321 1978 82 NA NA FLOSSIE 1978-09-08 03:00:00 TS 23.0121 -62.1271 main 630 630 P_____________ AL131978 23.0121 -62.1271 TS 37 0 9 0
1978247N12321 1978 82 NA NA FLOSSIE 1978-09-08 06:00:00 TS 23.5000 -62.0000 35 1005 hurdat_atl main 681 681 O_____________ hurdat_atl AL131978 23.5000 -62.0000 TS 35 1005 0 10 28
1978247N12321 1978 82 NA NA FLOSSIE 1978-09-08 09:00:00 TS 23.9154 -61.5956 main 741 741 P_____________ AL131978 23.9154 -61.5956 TS 35 1005 0 12 46
1978247N12321 1978 82 NA NA FLOSSIE 1978-09-08 12:00:00 TS 24.3000 -61.1000 35 hurdat_atl main 807 807 I_____________ hurdat_atl AL131978 24.3000 -61.1000 TS 35 1006 0 11 45
1978247N12321 1978 82 NA NA FLOSSIE 1978-09-08 15:00:00 TS 24.6573 -60.7771 main 861 861 P_____________ AL131978 24.6573 -60.7771 TS 32 1007 -1 9 38
1978247N12321 1978 82 NA NA FLOSSIE 1978-09-08 18:00:00 TS 25.0000 -60.5000 30 1008 hurdat_atl main 906 906 O_____________ hurdat_atl AL131978 25.0000 -60.5000 TD 30 1008 -1 9 37
1978247N12321 1978 82 NA NA FLOSSIE 1978-09-08 21:00:00 TS 25.3499 -60.2073 main 951 951 P_____________ AL131978 25.3499 -60.2073 TD 30 1008 -1 9 38
1978247N12321 1978 82 NA NA FLOSSIE 1978-09-09 00:00:00 TS 25.7000 -59.9000 30 hurdat_atl main 1005 1005 I_____________ hurdat_atl AL131978 25.7000 -59.9000 TD 30 1009 -1 9 40
1978247N12321 1978 82 NA NA FLOSSIE 1978-09-09 03:00:00 TS 26.0423 -59.5721 main 1049 1049 P_____________ AL131978 26.0423 -59.5721 TD 27 1009 -1 9 42
1978247N12321 1978 82 NA NA FLOSSIE 1978-09-09 06:00:00 TS 26.4000 -59.2000 25 1010 hurdat_atl main 1109 1109 O_____________ hurdat_atl AL131978 26.4000 -59.2000 TD 25 1010 -1 11 43
1978247N12321 1978 82 NA NA FLOSSIE 1978-09-09 09:00:00 TS 26.8149 -58.7726 main 1169 1169 P_____________ AL131978 26.8149 -58.7726 TD 25 -1 11 45
1978247N12321 1978 82 NA NA FLOSSIE 1978-09-09 12:00:00 TS 27.2000 -58.3000 25 hurdat_atl main 1235 1235 O_____________ hurdat_atl AL131978 27.2000 -58.3000 TD 25 -1 11 52
1978247N12321 1978 82 NA NA FLOSSIE 1978-09-09 15:00:00 TS 27.4722 -57.8219 main 1292 1292 P_____________ AL131978 27.4722 -57.8219 TD 25 -1 10 61
1978247N12321 1978 82 NA NA FLOSSIE 1978-09-09 18:00:00 TS 27.7000 -57.3000 25 hurdat_atl main 1341 1341 O_____________ hurdat_atl AL131978 27.7000 -57.3000 TD 25 -1 11 63
1978247N12321 1978 82 NA NA FLOSSIE 1978-09-09 21:00:00 TS 27.9573 -56.7224 main 1405 1405 P_____________ AL131978 27.9573 -56.7224 TD 25 -1 12 65
1978247N12321 1978 82 NA NA FLOSSIE 1978-09-10 00:00:00 TS 28.2000 -56.1000 25 hurdat_atl main 1461 1461 O_____________ hurdat_atl AL131978 28.2000 -56.1000 TD 25 -1 12 67
1978247N12321 1978 82 NA NA FLOSSIE 1978-09-10 03:00:00 TS 28.4297 -55.4651 main 1518 1518 P_____________ AL131978 28.4297 -55.4651 TD 27 -1 12 71
1978247N12321 1978 82 NA NA FLOSSIE 1978-09-10 06:00:00 TS 28.6000 -54.8000 30 1008 hurdat_atl main 1582 1582 O_____________ hurdat_atl AL131978 28.6000 -54.8000 TD 30 1008 -1 12 80
1978247N12321 1978 82 NA NA FLOSSIE 1978-09-10 09:00:00 TS 28.6498 -54.1066 main 1633 1633 P_____________ AL131978 28.6498 -54.1066 TD 30 -1 12 85
1978247N12321 1978 82 NA NA FLOSSIE 1978-09-10 12:00:00 TS 28.7000 -53.4000 30 hurdat_atl main 1691 1691 O_____________ hurdat_atl AL131978 28.7000 -53.4000 TD 30 -1 13 78
1978247N12321 1978 82 NA NA FLOSSIE 1978-09-10 15:00:00 TS 28.8995 -52.7081 main 1758 1758 P_____________ AL131978 28.8995 -52.7081 TD 30 -1 13 72
1978247N12321 1978 82 NA NA FLOSSIE 1978-09-10 18:00:00 TS 29.1000 -52.0000 30 hurdat_atl main 1825 1825 O_____________ hurdat_atl AL131978 29.1000 -52.0000 TD 30 -1 13 80
1978247N12321 1978 82 NA NA FLOSSIE 1978-09-10 21:00:00 TS 29.1273 -51.2485 main 1887 1887 P_____________ AL131978 29.1273 -51.2485 TD 32 -1 13 86
1978247N12321 1978 82 NA NA FLOSSIE 1978-09-11 00:00:00 TS 29.2000 -50.5000 35 1005 hurdat_atl main 1949 1925 O_____________ hurdat_atl AL131978 29.2000 -50.5000 TS 35 1005 0 13 74
1978247N12321 1978 82 NA NA FLOSSIE 1978-09-11 03:00:00 TS 29.4968 -49.8075 main 1926 1891 P_____________ AL131978 29.4968 -49.8075 TS 40 1003 0 14 60
1978247N12321 1978 82 NA NA FLOSSIE 1978-09-11 06:00:00 TS 29.9000 -49.1000 45 1001 hurdat_atl main 1892 1859 O_____________ hurdat_atl AL131978 29.9000 -49.1000 TS 45 1001 0 15 57
1978247N12321 1978 82 NA NA FLOSSIE 1978-09-11 09:00:00 TS 30.3295 -48.3305 main 1863 1834 P_____________ AL131978 30.3295 -48.3305 TS 50 999 0 16 60
1978247N12321 1978 82 NA NA FLOSSIE 1978-09-11 12:00:00 TS 30.7000 -47.5000 55 998 hurdat_atl main 1836 1830 O_____________ hurdat_atl AL131978 30.7000 -47.5000 TS 55 998 0 16 70
1978247N12321 1978 82 NA NA FLOSSIE 1978-09-11 15:00:00 TS 30.8882 -46.5541 main 1836 1836 P_____________ AL131978 30.8882 -46.5541 TS 55 997 0 16 79
1978247N12321 1978 82 NA NA FLOSSIE 1978-09-11 18:00:00 TS 31.0000 -45.7000 55 hurdat_atl main 1851 1846 I_____________ hurdat_atl AL131978 31.0000 -45.7000 TS 55 996 0 13 77
1978247N12321 1978 82 NA NA FLOSSIE 1978-09-11 21:00:00 TS 31.1641 -45.1174 main 1848 1848 P_____________ AL131978 31.1641 -45.1174 TS 57 995 0 9 71
1978247N12321 1978 82 NA NA FLOSSIE 1978-09-12 00:00:00 TS 31.3000 -44.7000 60 995 hurdat_atl main 1851 1851 O_____________ hurdat_atl AL131978 31.3000 -44.7000 TS 60 995 0 7 74
1978247N12321 1978 82 NA NA FLOSSIE 1978-09-12 03:00:00 TS 31.3573 -44.3122 main 1854 1854 P_____________ AL131978 31.3573 -44.3122 TS 62 993 0 6 80
1978247N12321 1978 82 NA NA FLOSSIE 1978-09-12 06:00:00 TS 31.4000 -44.0000 65 992 hurdat_atl main 1865 1862 O_____________ hurdat_atl AL131978 31.4000 -44.0000 HU 65 992 1 5 74
1978247N12321 1978 82 NA NA FLOSSIE 1978-09-12 09:00:00 TS 31.4999 -43.7350 main 1866 1859 P_____________ AL131978 31.4999 -43.7350 HU 70 988 1 5 65
1978247N12321 1978 82 NA NA FLOSSIE 1978-09-12 12:00:00 TS 31.6000 -43.5000 75 985 hurdat_atl main 1863 1863 O_____________ hurdat_atl AL131978 31.6000 -43.5000 HU 75 985 1 5 70
1978247N12321 1978 82 NA NA FLOSSIE 1978-09-12 15:00:00 TS 31.6576 -43.2200 main 1864 1864 P_____________ AL131978 31.6576 -43.2200 HU 77 982 1 4 77
1978247N12321 1978 82 NA NA FLOSSIE 1978-09-12 18:00:00 TS 31.7000 -43.0000 80 980 hurdat_atl main 1872 1872 O_____________ hurdat_atl AL131978 31.7000 -43.0000 HU 80 980 1 3 74
1978247N12321 1978 82 NA NA FLOSSIE 1978-09-12 21:00:00 TS 31.7349 -42.9050 main 1876 1866 P_____________ AL131978 31.7349 -42.9050 HU 82 978 1 1 40
1978247N12321 1978 82 NA NA FLOSSIE 1978-09-13 00:00:00 TS 31.8000 -42.9000 85 976 hurdat_atl main 1866 1856 O_____________ hurdat_atl AL131978 31.8000 -42.9000 HU 85 976 2 2 347
1978247N12321 1978 82 NA NA FLOSSIE 1978-09-13 03:00:00 TS 31.9200 -42.9424 main 1856 1832 P_____________ AL131978 31.9200 -42.9424 HU 85 2 3 344
1978247N12321 1978 82 NA NA FLOSSIE 1978-09-13 06:00:00 TS 32.1000 -43.0000 85 hurdat_atl main 1832 1811 O_____________ hurdat_atl AL131978 32.1000 -43.0000 HU 85 2 4 352
1978247N12321 1978 82 NA NA FLOSSIE 1978-09-13 09:00:00 TS 32.2975 -43.0002 main 1811 1781 P_____________ AL131978 32.2975 -43.0002 HU 85 2 5 2
1978247N12321 1978 82 NA NA FLOSSIE 1978-09-13 12:00:00 TS 32.6000 -43.0000 85 hurdat_atl main 1781 1741 O_____________ hurdat_atl AL131978 32.6000 -43.0000 HU 85 2 8 357
1978247N12321 1978 82 NA NA FLOSSIE 1978-09-13 15:00:00 TS 33.0625 -43.0498 main 1731 1678 P_____________ AL131978 33.0625 -43.0498 HU 80 1 10 355
1978247N12321 1978 82 NA NA FLOSSIE 1978-09-13 18:00:00 TS 33.6000 -43.1000 75 985 hurdat_atl main 1678 1628 O_____________ hurdat_atl AL131978 33.6000 -43.1000 HU 75 985 1 10 357
1978247N12321 1978 82 NA NA FLOSSIE 1978-09-13 21:00:00 TS 34.0775 -43.1223 main 1628 1579 P_____________ AL131978 34.0775 -43.1223 HU 75 1 10 1
1978247N12321 1978 82 NA NA FLOSSIE 1978-09-14 00:00:00 TS 34.6000 -43.1000 75 hurdat_atl main 1579 1521 O_____________ hurdat_atl AL131978 34.6000 -43.1000 HU 75 1 11 2
1978247N12321 1978 82 NA NA FLOSSIE 1978-09-14 03:00:00 TS 35.2122 -43.0735 main 1521 1464 P_____________ AL131978 35.2122 -43.0735 HU 75 1 13 7
1978247N12321 1978 82 NA NA FLOSSIE 1978-09-14 06:00:00 TS 35.9000 -42.9000 75 hurdat_atl main 1464 1419 O_____________ hurdat_atl AL131978 35.9000 -42.9000 HU 75 1 15 19
1978247N12321 1978 82 NA NA FLOSSIE 1978-09-14 09:00:00 TS 36.6051 -42.4819 main 1419 1380 P_____________ AL131978 36.6051 -42.4819 HU 75 1 17 28
1978247N12321 1978 82 NA NA FLOSSIE 1978-09-14 12:00:00 TS 37.4000 -41.9000 75 hurdat_atl main 1380 1332 O_____________ hurdat_atl AL131978 37.4000 -41.9000 HU 75 1 20 28
1978247N12321 1978 82 NA NA FLOSSIE 1978-09-14 15:00:00 TS 38.3413 -41.3307 main 1338 1302 P_____________ AL131978 38.3413 -41.3307 HU 75 1 22 28
1978247N12321 1978 82 NA NA FLOSSIE 1978-09-14 18:00:00 TS 39.3000 -40.6000 75 hurdat_atl main 1302 1297 O_____________ hurdat_atl AL131978 39.3000 -40.6000 HU 75 1 22 37
1978247N12321 1978 82 NA NA FLOSSIE 1978-09-14 21:00:00 TS 40.0770 -39.6423 main 1307 1306 P_____________ AL131978 40.0770 -39.6423 HU 75 1 23 45
1978247N12321 1978 82 NA NA FLOSSIE 1978-09-15 00:00:00 TS 40.9000 -38.5000 75 hurdat_atl main 1328 1328 O_____________ hurdat_atl AL131978 40.9000 -38.5000 HU 75 1 26 44
1978247N12321 1978 82 NA NA FLOSSIE 1978-09-15 03:00:00 TS 41.9237 -37.2702 main 1352 1352 P_____________ AL131978 41.9237 -37.2702 HU 70 1 29 41
1978247N12321 1978 82 NA NA FLOSSIE 1978-09-15 06:00:00 TS 43.1000 -35.9000 65 992 hurdat_atl main 1386 1386 O_____________ hurdat_atl AL131978 43.1000 -35.9000 HU 65 992 1 32 40
1978247N12321 1978 82 NA NA FLOSSIE 1978-09-15 09:00:00 TS 44.4135 -34.4099 main 1439 1439 P_____________ AL131978 44.4135 -34.4099 HU 60 995 0 34 40
1978247N12321 1978 82 NA NA FLOSSIE 1978-09-15 12:00:00 TS 45.7000 -32.8000 55 998 hurdat_atl main 1515 1515 O_____________ hurdat_atl AL131978 45.7000 -32.8000 TS 55 998 0 32 44
1978247N12321 1978 82 NA NA FLOSSIE 1978-09-15 15:00:00 TS 46.7296 -31.2323 main 1598 1439 P_____________ AL131978 46.7296 -31.2323 TS 52 998 0 31 49
1978247N12321 1978 82 NA NA FLOSSIE 1978-09-15 18:00:00 TS 47.7000 -29.4000 50 hurdat_atl main 1427 1226 I_____________ hurdat_atl AL131978 47.7000 -29.4000 TS 50 999 0 35 54
1978247N12321 1978 82 NA NA FLOSSIE 1978-09-15 21:00:00 TS 48.7737 -26.9936 main 1215 1010 P_____________ AL131978 48.7737 -26.9936 TS 47 999 0 40 58
1978247N12321 1978 82 NA NA FLOSSIE 1978-09-16 00:00:00 ET 49.8000 -24.3000 45 1000 hurdat_atl main 993 794 O_____________ hurdat_atl AL131978 49.8000 -24.3000 EX 45 1000 -4 39 61
1978247N12321 1978 82 NA NA FLOSSIE 1978-09-16 03:00:00 ET 50.7002 -21.6397 main 780 591 P_____________ AL131978 50.7002 -21.6397 EX 45 -4 38 63
1978247N12321 1978 82 NA NA FLOSSIE 1978-09-16 06:00:00 ET 51.5000 -19.0000 45 hurdat_atl main 584 O_____________ hurdat_atl AL131978 51.5000 -19.0000 EX 45 -4 37 64

IBTrACS Databaseについて

本データベースは、米国NOAAが公開する1842年以降の世界の熱帯低気圧のベストトラックデータアーカイブInternational Best Track Archive for Climate Stewardship (IBTrACS)を、ウェブで閲覧しやすい形式に変換したものです。

最終更新日:2021-10-08